Terminal Aerodrome Forecast
Issued by NWS

Home | Current Version | Previous Version | Text Only | Print | Product List | Glossary On
Versions: 1 2 3 4 5 6 7 8 9 10 11 12 13 14
000
FTUS42 TJSJ 040525
TAFJBQ
TAF
TJBQ 040525Z 0406/0506 VRB04KT P6SM FEW023
     FM041330 05010KT P6SM SCT030
     FM041900 07010KT P6SM VCTS SCT030CB BKN060
     FM042200 08008KT P6SM SCT030
      AMD NOT SKED TIL 041100=

USA.gov is the U.S. government's official web portal to all federal, state and local government web resources and services.